Time;durP1;ratioP1;P1;durP2;ratioP2;P2;SDS_P1;SDS_P2;PMS_P1;PMS_P2;Temp;Humidity;BMP_temperature;BMP_pressure;BME280_temperature;BME280_humidity;BME280_pressure;Samples;Min_cycle;Max_cycle;Signal;HPM_P1;HPM_P2
2022/08/22 00:01:02;;;;;;;6.63;3.13;;;;;;;;;;5032018;28;20558;-67
2022/08/22 00:03:41;;;;;;;7.97;3.05;;;;;;;;;;5031653;28;20049;-67
2022/08/22 00:06:14;;;;;;;5.33;3.00;;;;;;;;;;5032076;28;20084;-67
2022/08/22 00:08:40;;;;;;;5.43;2.70;;;;;;;;;;5032004;28;20049;-67
2022/08/22 00:11:07;;;;;;;5.15;2.70;;;;;;;;;;5031971;28;20084;-67
2022/08/22 00:13:41;;;;;;;6.57;2.90;;;;;;;;;;5032395;28;20076;-67
2022/08/22 00:16:12;;;;;;;5.38;2.92;;;;;;;;;;5031847;28;20489;-67
2022/08/22 00:18:46;;;;;;;4.53;3.30;;;;;;;;;;5031588;28;20096;-67
2022/08/22 00:21:20;;;;;;;3.92;3.08;;;;;;;;;;5031891;28;20080;-66
2022/08/22 00:23:52;;;;;;;4.05;2.90;;;;;;;;;;5030567;28;20168;-66
2022/08/22 00:26:23;;;;;;;5.85;3.05;;;;;;;;;;5032082;28;20065;-66
2022/08/22 00:29:01;;;;;;;6.13;3.00;;;;;;;;;;5031714;28;20084;-66
2022/08/22 00:31:39;;;;;;;7.50;2.90;;;;;;;;;;5031940;28;20463;-66
2022/08/22 00:34:05;;;;;;;8.05;3.00;;;;;;;;;;5031938;28;20560;-66
2022/08/22 00:36:38;;;;;;;6.47;2.97;;;;;;;;;;5031640;28;20053;-67
2022/08/22 00:39:08;;;;;;;5.80;2.60;;;;;;;;;;5031617;28;20083;-66
2022/08/22 00:41:41;;;;;;;5.30;3.30;;;;;;;;;;5031489;28;20087;-66
2022/08/22 00:44:19;;;;;;;6.28;2.80;;;;;;;;;;5031799;28;20077;-67
2022/08/22 00:47:01;;;;;;;7.93;3.08;;;;;;;;;;5031363;28;20076;-67
2022/08/22 00:49:43;;;;;;;6.43;3.20;;;;;;;;;;5031580;28;20537;-67
2022/08/22 00:52:19;;;;;;;5.57;2.47;;;;;;;;;;5031881;28;20449;-67
2022/08/22 00:54:59;;;;;;;5.57;2.58;;;;;;;;;;5031685;28;20103;-67
2022/08/22 00:57:25;;;;;;;3.33;2.38;;;;;;;;;;5031300;28;20482;-67
2022/08/22 00:59:54;;;;;;;6.50;3.03;;;;;;;;;;5031566;28;20128;-67
2022/08/22 01:02:40;;;;;;;5.38;2.55;;;;;;;;;;5031279;28;20085;-67
2022/08/22 01:05:06;;;;;;;6.97;3.28;;;;;;;;;;5031604;28;20122;-67
2022/08/22 01:07:51;;;;;;;5.95;3.17;;;;;;;;;;5035005;28;20041;-67
2022/08/22 01:10:18;;;;;;;6.43;3.25;;;;;;;;;;5035287;28;20092;-67
2022/08/22 01:12:51;;;;;;;4.97;2.97;;;;;;;;;;5035228;28;20045;-67
2022/08/22 01:15:36;;;;;;;5.32;3.08;;;;;;;;;;5035288;28;20579;-67
2022/08/22 01:18:17;;;;;;;4.30;2.90;;;;;;;;;;5035191;28;20093;-67
2022/08/22 01:21:02;;;;;;;5.10;2.95;;;;;;;;;;5035476;28;20412;-67
2022/08/22 01:23:48;;;;;;;6.55;3.17;;;;;;;;;;5035413;28;20050;-67
2022/08/22 01:26:33;;;;;;;5.65;3.30;;;;;;;;;;5035196;28;20049;-67
2022/08/22 01:29:31;;;;;;;6.78;3.65;;;;;;;;;;5035292;28;20055;-67
2022/08/22 01:31:57;;;;;;;5.57;3.00;;;;;;;;;;5034986;28;20084;-67
2022/08/22 01:34:24;;;;;;;6.22;3.28;;;;;;;;;;5034984;28;20095;-67
2022/08/22 01:37:03;;;;;;;5.93;2.90;;;;;;;;;;5035109;28;20049;-67
2022/08/22 01:39:47;;;;;;;4.40;3.10;;;;;;;;;;5034986;28;20100;-67
2022/08/22 01:42:23;;;;;;;6.50;2.97;;;;;;;;;;5034901;28;20045;-67
2022/08/22 01:45:05;;;;;;;3.90;2.95;;;;;;;;;;5034667;28;20042;-67
2022/08/22 01:47:34;;;;;;;5.18;2.90;;;;;;;;;;5034899;28;20091;-67
2022/08/22 01:50:21;;;;;;;6.50;3.72;;;;;;;;;;5035031;28;20075;-67
2022/08/22 01:52:58;;;;;;;5.53;3.15;;;;;;;;;;5034835;28;20100;-67
2022/08/22 01:55:43;;;;;;;5.70;3.28;;;;;;;;;;5033481;28;20107;-67
2022/08/22 01:58:18;;;;;;;5.70;3.28;;;;;;;;;;5034490;28;20058;-67
2022/08/22 02:01:08;;;;;;;5.72;2.92;;;;;;;;;;5034511;28;20097;-67
2022/08/22 02:03:40;;;;;;;4.00;2.90;;;;;;;;;;5033207;28;20168;-67
2022/08/22 02:06:14;;;;;;;3.47;2.80;;;;;;;;;;5034302;28;20089;-67
2022/08/22 02:08:49;;;;;;;4.47;2.72;;;;;;;;;;5033630;28;20441;-67
2022/08/22 02:11:30;;;;;;;4.90;3.08;;;;;;;;;;5034472;28;20053;-67
2022/08/22 02:14:15;;;;;;;6.60;3.20;;;;;;;;;;5033116;28;20095;-67
2022/08/22 02:16:48;;;;;;;6.15;3.17;;;;;;;;;;5033887;28;20175;-67
2022/08/22 02:19:14;;;;;;;8.70;3.35;;;;;;;;;;5033963;28;20132;-67
2022/08/22 02:21:48;;;;;;;5.03;3.20;;;;;;;;;;5034167;28;20079;-67
2022/08/22 02:24:20;;;;;;;6.55;3.60;;;;;;;;;;5034084;28;20525;-67
2022/08/22 02:27:03;;;;;;;8.82;3.90;;;;;;;;;;5033777;28;20528;-67
2022/08/22 02:29:47;;;;;;;7.25;3.40;;;;;;;;;;5034065;28;20057;-67
2022/08/22 02:32:22;;;;;;;4.93;3.47;;;;;;;;;;5033848;28;20567;-67
2022/08/22 02:35:07;;;;;;;4.65;2.97;;;;;;;;;;5034034;28;20104;-66
2022/08/22 02:37:37;;;;;;;5.15;2.72;;;;;;;;;;5033708;28;20111;-66
2022/08/22 02:40:04;;;;;;;8.55;3.40;;;;;;;;;;5033767;28;20134;-67
2022/08/22 02:42:30;;;;;;;;;;;;;;;;;;5034313;28;20041;-67
2022/08/22 02:44:57;;;;;;;5.97;2.92;;;;;;;;;;5033790;28;19975;-67
2022/08/22 02:47:31;;;;;;;5.70;2.70;;;;;;;;;;5033957;28;20478;-66
2022/08/22 02:50:10;;;;;;;3.88;2.60;;;;;;;;;;5033556;28;20525;-67
2022/08/22 02:52:46;;;;;;;4.43;2.53;;;;;;;;;;5033337;28;20049;-66
2022/08/22 02:55:17;;;;;;;6.90;2.70;;;;;;;;;;5033895;28;20084;-67
2022/08/22 02:57:59;;;;;;;3.60;3.03;;;;;;;;;;5033607;28;20049;-67
2022/08/22 03:00:27;;;;;;;5.57;2.97;;;;;;;;;;5033469;28;20107;-67
2022/08/22 03:02:58;;;;;;;6.00;3.05;;;;;;;;;;5033286;28;20520;-67
2022/08/22 03:05:27;;;;;;;8.38;3.10;;;;;;;;;;5032253;28;20508;-67
2022/08/22 03:08:01;;;;;;;8.98;3.20;;;;;;;;;;5033134;28;20545;-67
2022/08/22 03:10:31;;;;;;;4.75;2.50;;;;;;;;;;5033278;28;20485;-67
2022/08/22 03:13:09;;;;;;;3.78;3.10;;;;;;;;;;5032982;28;20053;-67
2022/08/22 03:15:46;;;;;;;8.80;3.30;;;;;;;;;;5032992;28;20085;-67
2022/08/22 03:18:17;;;;;;;4.82;3.10;;;;;;;;;;5032908;28;20398;-67
2022/08/22 03:20:52;;;;;;;5.13;2.80;;;;;;;;;;5032976;28;20127;-67
2022/08/22 03:23:24;;;;;;;4.60;2.47;;;;;;;;;;5033010;28;20080;-67
2022/08/22 03:25:53;;;;;;;4.35;2.72;;;;;;;;;;5032910;28;20053;-67
2022/08/22 03:28:27;;;;;;;5.10;3.13;;;;;;;;;;5032205;28;20050;-67
2022/08/22 03:30:56;;;;;;;5.97;2.78;;;;;;;;;;5033081;28;20466;-66
2022/08/22 03:33:24;;;;;;;4.90;3.30;;;;;;;;;;5032542;28;20053;-67
2022/08/22 03:35:58;;;;;;;5.93;3.33;;;;;;;;;;5032629;28;20061;-67
2022/08/22 03:38:27;;;;;;;7.00;3.60;;;;;;;;;;5032499;28;20049;-67
2022/08/22 03:41:15;;;;;;;6.63;3.75;;;;;;;;;;5031474;28;20076;-67
2022/08/22 03:43:41;;;;;;;;;;;;;;;;;;5027937;28;20570;-67
2022/08/22 03:46:26;;;;;;;9.55;6.65;;;;;;;;;;5032536;28;20385;-67
2022/08/22 03:48:53;;;;;;;13.63;8.85;;;;;;;;;;5032256;28;20103;-66
2022/08/22 03:51:22;;;;;;;11.90;8.27;;;;;;;;;;5032595;28;20095;-67
2022/08/22 03:53:52;;;;;;;8.30;5.68;;;;;;;;;;5032500;28;20088;-67
2022/08/22 03:56:19;;;;;;;7.50;5.47;;;;;;;;;;5032380;28;20347;-67
2022/08/22 03:58:45;;;;;;;7.90;5.53;;;;;;;;;;5031975;28;20501;-67
2022/08/22 04:01:18;;;;;;;9.85;5.60;;;;;;;;;;5032447;28;20068;-67
2022/08/22 04:03:51;;;;;;;7.57;5.35;;;;;;;;;;5032124;28;20046;-67
2022/08/22 04:06:28;;;;;;;6.50;4.75;;;;;;;;;;5032271;28;20120;-67
2022/08/22 04:09:23;;;;;;;7.00;4.18;;;;;;;;;;5032035;28;20666;-67
2022/08/22 04:12:06;;;;;;;6.05;4.88;;;;;;;;;;5032058;28;20085;-67
2022/08/22 04:14:42;;;;;;;8.18;4.60;;;;;;;;;;5031894;28;20088;-67
2022/08/22 04:17:15;;;;;;;6.40;4.00;;;;;;;;;;5031826;28;20457;-67
2022/08/22 04:19:44;;;;;;;6.60;4.05;;;;;;;;;;5032003;28;20083;-67
2022/08/22 04:22:30;;;;;;;6.40;4.53;;;;;;;;;;5032131;28;20480;-67
2022/08/22 04:24:58;;;;;;;7.32;4.38;;;;;;;;;;5031940;28;20073;-67
2022/08/22 04:27:42;;;;;;;5.65;4.10;;;;;;;;;;5031921;28;20057;-67
2022/08/22 04:30:15;;;;;;;7.57;4.32;;;;;;;;;;5031944;28;20053;-67
2022/08/22 04:32:55;;;;;;;6.97;4.20;;;;;;;;;;5030385;28;20057;-67
2022/08/22 04:35:28;;;;;;;6.85;4.32;;;;;;;;;;5031922;28;20049;-67
2022/08/22 04:38:01;;;;;;;7.20;4.63;;;;;;;;;;5031933;28;20123;-67
2022/08/22 04:40:32;;;;;;;7.10;5.45;;;;;;;;;;5031716;28;20444;-66
2022/08/22 04:43:17;;;;;;;6.00;4.85;;;;;;;;;;5032172;28;20049;-66
2022/08/22 04:45:43;;;;;;;8.25;5.25;;;;;;;;;;5030251;28;20079;-67
2022/08/22 04:48:32;;;;;;;8.18;5.30;;;;;;;;;;5031558;28;20050;-66
2022/08/22 04:51:02;;;;;;;7.28;4.93;;;;;;;;;;5031813;28;20088;-66
2022/08/22 04:53:31;;;;;;;8.00;5.20;;;;;;;;;;5031360;28;20057;-67
2022/08/22 04:56:01;;;;;;;7.85;5.45;;;;;;;;;;5031535;28;20514;-67
2022/08/22 04:58:41;;;;;;;10.18;5.70;;;;;;;;;;5031347;28;20493;-67
2022/08/22 05:01:13;;;;;;;8.38;6.40;;;;;;;;;;5030144;28;20493;-67
2022/08/22 05:03:43;;;;;;;6.97;4.82;;;;;;;;;;5031304;28;20176;-67
2022/08/22 05:06:12;;;;;;;9.43;5.90;;;;;;;;;;5031576;28;20080;-67
2022/08/22 05:08:39;;;;;;;12.02;6.88;;;;;;;;;;5031478;28;20092;-66
2022/08/22 05:11:06;;;;;;;9.20;7.97;;;;;;;;;;5031441;28;20080;-67
2022/08/22 05:13:38;;;;;;;9.77;8.75;;;;;;;;;;5031565;28;20053;-67
2022/08/22 05:16:08;;;;;;;11.18;9.38;;;;;;;;;;5030115;28;20089;-67
2022/08/22 05:18:37;;;;;;;12.90;8.50;;;;;;;;;;5031144;28;20456;-67
2022/08/22 05:21:05;;;;;;;10.65;7.88;;;;;;;;;;5031359;28;20120;-66
2022/08/22 05:23:43;;;;;;;10.30;8.25;;;;;;;;;;5031128;28;20049;-66
2022/08/22 05:26:11;;;;;;;9.77;7.88;;;;;;;;;;5031119;28;20506;-67
2022/08/22 05:28:42;;;;;;;13.73;8.85;;;;;;;;;;5031079;28;20065;-66
2022/08/22 05:31:10;;;;;;;13.23;8.30;;;;;;;;;;5031115;28;20089;-67
2022/08/22 05:33:41;;;;;;;10.60;8.38;;;;;;;;;;5031025;28;20081;-67
2022/08/22 05:36:10;;;;;;;12.13;8.48;;;;;;;;;;5031265;28;20100;-67
2022/08/22 05:38:42;;;;;;;13.68;9.27;;;;;;;;;;5030955;28;20089;-67
2022/08/22 05:41:10;;;;;;;13.98;7.82;;;;;;;;;;5030935;28;20084;-67
2022/08/22 05:43:39;;;;;;;12.85;8.30;;;;;;;;;;5030886;28;20049;-67
2022/08/22 05:46:08;;;;;;;10.40;7.55;;;;;;;;;;5030937;28;20049;-67
2022/08/22 05:48:39;;;;;;;10.90;7.07;;;;;;;;;;5030903;28;20073;-67
2022/08/22 05:51:14;;;;;;;10.07;7.45;;;;;;;;;;5031243;28;20058;-67
2022/08/22 05:53:46;;;;;;;11.23;8.02;;;;;;;;;;5034674;28;20045;-67
2022/08/22 05:56:17;;;;;;;10.23;7.85;;;;;;;;;;5034732;28;20126;-67
2022/08/22 05:58:53;;;;;;;12.70;8.25;;;;;;;;;;5034414;28;20457;-67
2022/08/22 06:01:22;;;;;;;12.65;8.18;;;;;;;;;;5034283;28;20494;-67
2022/08/22 06:03:58;;;;;;;16.52;8.75;;;;;;;;;;5034599;28;20053;-67
2022/08/22 06:06:26;;;;;;;12.35;9.05;;;;;;;;;;5034452;28;20265;-67
2022/08/22 06:08:57;;;;;;;13.57;9.18;;;;;;;;;;5033001;28;20490;-67
2022/08/22 06:11:29;;;;;;;13.20;8.88;;;;;;;;;;5034406;28;20123;-67
2022/08/22 06:14:08;;;;;;;14.45;8.20;;;;;;;;;;5034287;28;20053;-67
2022/08/22 06:16:38;;;;;;;11.20;7.80;;;;;;;;;;5034391;28;20103;-67
2022/08/22 06:19:14;;;;;;;13.57;8.07;;;;;;;;;;5034231;28;20058;-67
2022/08/22 06:21:50;;;;;;;11.73;7.88;;;;;;;;;;5034034;28;20050;-67
2022/08/22 06:24:20;;;;;;;15.20;8.07;;;;;;;;;;5034094;28;20049;-66
2022/08/22 06:26:49;;;;;;;10.60;7.93;;;;;;;;;;5034155;28;20077;-67
2022/08/22 06:29:21;;;;;;;11.55;8.50;;;;;;;;;;5033880;28;20096;-67
2022/08/22 06:31:48;;;;;;;12.02;8.00;;;;;;;;;;5033892;28;20119;-66
2022/08/22 06:34:16;;;;;;;13.88;8.48;;;;;;;;;;5033656;28;20073;-66
2022/08/22 06:36:45;;;;;;;14.82;9.18;;;;;;;;;;5033406;28;20493;-66
2022/08/22 06:39:20;;;;;;;13.30;8.90;;;;;;;;;;5033656;28;20072;-67
2022/08/22 06:41:50;;;;;;;11.13;8.30;;;;;;;;;;5033455;28;20045;-67
2022/08/22 06:44:19;;;;;;;12.10;8.77;;;;;;;;;;5033035;28;20053;-67
2022/08/22 06:46:46;;;;;;;12.52;8.13;;;;;;;;;;5031975;28;20111;-67
2022/08/22 06:49:13;;;;;;;10.57;7.85;;;;;;;;;;5032698;28;20481;-67
2022/08/22 06:51:40;;;;;;;14.50;8.37;;;;;;;;;;5033560;28;20085;-66
2022/08/22 06:54:15;;;;;;;10.25;7.70;;;;;;;;;;5032063;28;20287;-65
2022/08/22 06:56:43;;;;;;;11.77;7.32;;;;;;;;;;5033039;28;20088;-70
2022/08/22 06:59:14;;;;;;;11.13;6.22;;;;;;;;;;5032959;28;20046;-71
2022/08/22 07:01:47;;;;;;;14.48;7.18;;;;;;;;;;5033118;28;20037;-66
2022/08/22 07:04:14;;;;;;;13.27;6.85;;;;;;;;;;5031776;28;20128;-69
2022/08/22 07:06:48;;;;;;;12.57;6.95;;;;;;;;;;5032066;28;20057;-66
2022/08/22 07:09:29;;;;;;;12.48;6.32;;;;;;;;;;5032812;28;20045;-67
2022/08/22 07:11:58;;;;;;;13.20;6.78;;;;;;;;;;5032587;28;20071;-67
2022/08/22 07:14:27;;;;;;;13.35;6.60;;;;;;;;;;5033318;28;20108;-68
2022/08/22 07:16:56;;;;;;;12.48;6.65;;;;;;;;;;5032931;28;20053;-67
2022/08/22 07:19:30;;;;;;;14.02;6.57;;;;;;;;;;5027205;28;20493;-67
2022/08/22 07:21:57;;;;;;;16.38;6.50;;;;;;;;;;5031797;28;20524;-67
2022/08/22 07:24:30;;;;;;;11.20;5.95;;;;;;;;;;5032197;28;20092;-67
2022/08/22 07:27:07;;;;;;;12.75;5.95;;;;;;;;;;5032426;28;20417;-67
2022/08/22 07:29:33;;;;;;;;;;;;;;;;;;5032854;28;20045;-67
2022/08/22 07:32:20;;;;;;;10.20;5.77;;;;;;;;;;5032291;28;20296;-67
2022/08/22 07:34:49;;;;;;;10.00;5.93;;;;;;;;;;5030741;28;20046;-67
2022/08/22 07:37:22;;;;;;;13.50;6.18;;;;;;;;;;5026144;28;20127;-67
2022/08/22 07:39:51;;;;;;;10.93;5.82;;;;;;;;;;5030168;28;20564;-67
2022/08/22 07:42:38;;;;;;;10.35;5.93;;;;;;;;;;5031604;28;20140;-67
2022/08/22 07:45:05;;;;;;;11.45;5.55;;;;;;;;;;5031682;28;20083;-67
2022/08/22 07:47:51;;;;;;;10.03;5.30;;;;;;;;;;5031683;28;20049;-67
2022/08/22 07:50:23;;;;;;;10.30;5.50;;;;;;;;;;5028912;28;20489;-67
2022/08/22 07:52:50;;;;;;;9.80;4.93;;;;;;;;;;5031376;28;20049;-67
2022/08/22 07:55:19;;;;;;;6.88;4.65;;;;;;;;;;5031841;28;20100;-66
2022/08/22 07:57:47;;;;;;;10.73;4.82;;;;;;;;;;5031643;28;20057;-67
2022/08/22 08:00:15;;;;;;;9.85;4.90;;;;;;;;;;5031738;28;20140;-66
2022/08/22 08:02:48;;;;;;;8.38;4.47;;;;;;;;;;5031705;28;20462;-67
2022/08/22 08:05:16;;;;;;;8.70;5.03;;;;;;;;;;5031542;28;20077;-67
2022/08/22 08:07:44;;;;;;;9.43;4.35;;;;;;;;;;5031458;28;20049;-67
2022/08/22 08:10:31;;;;;;;9.52;3.92;;;;;;;;;;5029374;28;20547;-68
2022/08/22 08:12:59;;;;;;;8.18;4.07;;;;;;;;;;5029337;28;20094;-66
2022/08/22 08:15:29;;;;;;;5.90;3.50;;;;;;;;;;5031139;28;20143;-67
2022/08/22 08:17:58;;;;;;;7.13;3.72;;;;;;;;;;5031349;28;20107;-66
2022/08/22 08:20:26;;;;;;;5.68;3.00;;;;;;;;;;5031289;28;20077;-68
2022/08/22 08:22:54;;;;;;;9.65;3.75;;;;;;;;;;5030798;28;20099;-66
2022/08/22 08:25:23;;;;;;;6.80;3.30;;;;;;;;;;5031191;28;20101;-66
2022/08/22 08:30:39;;;;;;;6.05;2.65;;;;;;;;;;5019448;28;20103;-66
2022/08/22 08:33:07;;;;;;;8.48;2.50;;;;;;;;;;5031180;28;20500;-66
2022/08/22 08:35:58;;;;;;;5.93;2.92;;;;;;;;;;5031249;28;20064;-66
2022/08/22 08:38:31;;;;;;;5.35;2.40;;;;;;;;;;5031566;28;20050;-66
2022/08/22 08:41:07;;;;;;;6.03;2.58;;;;;;;;;;5031249;28;20110;-66
2022/08/22 08:43:39;;;;;;;8.70;3.22;;;;;;;;;;5031174;28;20041;-66
2022/08/22 08:46:24;;;;;;;9.50;2.53;;;;;;;;;;5031311;28;20057;-66
2022/08/22 08:48:54;;;;;;;5.95;2.60;;;;;;;;;;5030473;28;20405;-69
2022/08/22 08:51:30;;;;;;;7.07;2.22;;;;;;;;;;5030816;28;20045;-70
2022/08/22 08:53:56;;;;;;;5.63;2.60;;;;;;;;;;5029527;28;20057;-69
2022/08/22 08:56:23;;;;;;;;;;;;;;;;;;5031113;28;20064;-67
2022/08/22 08:58:59;;;;;;;8.25;2.13;;;;;;;;;;5030260;28;20443;-67
2022/08/22 09:01:28;;;;;;;7.05;2.53;;;;;;;;;;5031075;28;20045;-66
2022/08/22 09:04:14;;;;;;;4.38;1.90;;;;;;;;;;5031162;28;20073;-66
2022/08/22 09:06:50;;;;;;;4.55;1.42;;;;;;;;;;5031201;28;20050;-66
2022/08/22 09:09:40;;;;;;;6.40;1.70;;;;;;;;;;5028527;28;20401;-67
2022/08/22 09:12:15;;;;;;;3.38;1.40;;;;;;;;;;5028976;28;20064;-67
2022/08/22 09:14:54;;;;;;;3.72;1.40;;;;;;;;;;5029888;28;20053;-69
2022/08/22 09:17:50;;;;;;;3.63;1.63;;;;;;;;;;5030594;28;20057;-68
2022/08/22 09:20:37;;;;;;;6.03;1.40;;;;;;;;;;5029975;28;20049;-69
2022/08/22 09:23:07;;;;;;;2.88;1.30;;;;;;;;;;5030682;28;20049;-69
2022/08/22 09:25:49;;;;;;;3.65;1.42;;;;;;;;;;5030691;28;20064;-70
2022/08/22 09:28:28;;;;;;;5.15;1.67;;;;;;;;;;5031942;28;20513;-66
2022/08/22 09:30:58;;;;;;;8.10;1.67;;;;;;;;;;5034401;28;20053;-69
2022/08/22 09:33:32;;;;;;;3.50;1.40;;;;;;;;;;5034316;28;20107;-68
2022/08/22 09:36:12;;;;;;;6.95;1.35;;;;;;;;;;5034030;28;20053;-70
2022/08/22 09:38:58;;;;;;;3.63;1.27;;;;;;;;;;5034123;28;20049;-71
2022/08/22 09:41:41;;;;;;;2.67;1.20;;;;;;;;;;5033820;28;20048;-66
2022/08/22 09:44:16;;;;;;;3.13;1.00;;;;;;;;;;5032155;28;20409;-67
2022/08/22 09:46:42;;;;;;;4.05;1.60;;;;;;;;;;5031638;28;20045;-68
2022/08/22 09:49:12;;;;;;;3.17;1.17;;;;;;;;;;5032173;28;20529;-67
2022/08/22 09:51:56;;;;;;;3.53;1.42;;;;;;;;;;5033739;28;20049;-67
2022/08/22 09:54:23;;;;;;;4.60;1.42;;;;;;;;;;5034848;28;20084;-67
2022/08/22 09:56:57;;;;;;;4.53;1.50;;;;;;;;;;5034586;28;20053;-67
2022/08/22 09:59:23;;;;;;;4.15;1.67;;;;;;;;;;5033957;28;20567;-67
2022/08/22 10:01:56;;;;;;;2.63;1.52;;;;;;;;;;5034316;28;20077;-67
2022/08/22 10:04:39;;;;;;;5.95;1.63;;;;;;;;;;5034747;28;20076;-67
2022/08/22 10:07:26;;;;;;;3.88;1.42;;;;;;;;;;5034388;28;20486;-67
2022/08/22 10:10:10;;;;;;;2.95;1.70;;;;;;;;;;5034368;28;20041;-67
2022/08/22 10:12:41;;;;;;;4.88;1.83;;;;;;;;;;5034706;28;20068;-67
2022/08/22 10:15:17;;;;;;;2.72;1.55;;;;;;;;;;5034531;28;20409;-67
2022/08/22 10:18:02;;;;;;;2.38;1.60;;;;;;;;;;5034232;28;20060;-67
2022/08/22 10:20:34;;;;;;;3.45;1.90;;;;;;;;;;5034323;28;20052;-67
2022/08/22 10:23:14;;;;;;;3.95;1.70;;;;;;;;;;5034247;28;20049;-67
2022/08/22 10:25:43;;;;;;;3.10;1.95;;;;;;;;;;5034239;28;20045;-67
2022/08/22 10:28:16;;;;;;;5.65;2.00;;;;;;;;;;5033911;28;20559;-67
2022/08/22 10:30:48;;;;;;;3.65;2.10;;;;;;;;;;5033342;28;20179;-67
2022/08/22 10:33:21;;;;;;;5.22;2.33;;;;;;;;;;5034022;28;20548;-67
2022/08/22 10:35:59;;;;;;;5.53;1.80;;;;;;;;;;5033950;28;20049;-67
2022/08/22 10:38:34;;;;;;;2.38;1.70;;;;;;;;;;5033726;28;20081;-67
2022/08/22 10:41:15;;;;;;;2.65;1.90;;;;;;;;;;5033991;28;20056;-67
2022/08/22 10:43:54;;;;;;;2.35;1.60;;;;;;;;;;5033650;28;20045;-67
2022/08/22 10:46:29;;;;;;;2.75;1.70;;;;;;;;;;5033787;28;20057;-67
2022/08/22 10:48:57;;;;;;;1.88;1.50;;;;;;;;;;5033833;28;20085;-68
2022/08/22 10:51:30;;;;;;;2.83;1.95;;;;;;;;;;5033512;28;20053;-67
2022/08/22 10:54:03;;;;;;;2.63;1.80;;;;;;;;;;5033444;28;20054;-68
2022/08/22 10:56:33;;;;;;;4.75;1.60;;;;;;;;;;5033614;28;20076;-67
2022/08/22 10:59:04;;;;;;;3.35;1.92;;;;;;;;;;5033357;28;20054;-67
2022/08/22 11:01:36;;;;;;;1.88;1.30;;;;;;;;;;5033495;28;20084;-68
2022/08/22 11:04:21;;;;;;;2.75;1.58;;;;;;;;;;5033297;28;20048;-67
2022/08/22 11:07:13;;;;;;;1.53;1.43;;;;;;;;;;5032146;28;20119;-67
2022/08/22 11:09:47;;;;;;;3.00;1.50;;;;;;;;;;5020803;28;20064;-67
2022/08/22 11:12:19;;;;;;;3.85;1.52;;;;;;;;;;5033128;28;20501;-68
2022/08/22 11:14:49;;;;;;;2.67;1.30;;;;;;;;;;5033201;28;20041;-67
2022/08/22 11:17:21;;;;;;;3.95;1.23;;;;;;;;;;5033025;28;20049;-67
2022/08/22 11:20:07;;;;;;;1.38;1.20;;;;;;;;;;5031962;28;20092;-67
2022/08/22 11:22:34;;;;;;;;;;;;;;;;;;5033668;28;20056;-67
2022/08/22 11:25:16;;;;;;;2.03;1.15;;;;;;;;;;5032741;28;20376;-67
2022/08/22 11:28:04;;;;;;;1.80;1.00;;;;;;;;;;5033002;28;20059;-67
2022/08/22 11:30:30;;;;;;;2.65;1.23;;;;;;;;;;5033132;28;20045;-67
2022/08/22 11:33:20;;;;;;;1.13;1.02;;;;;;;;;;5032775;28;20059;-67
2022/08/22 11:36:09;;;;;;;1.55;1.08;;;;;;;;;;5017169;28;20609;-67
2022/08/22 11:38:48;;;;;;;1.42;0.80;;;;;;;;;;5032274;28;20073;-68
2022/08/22 11:41:21;;;;;;;2.63;1.13;;;;;;;;;;5028947;28;20077;-69
2022/08/22 11:43:49;;;;;;;3.53;1.00;;;;;;;;;;5032227;28;20081;-69
2022/08/22 11:46:22;;;;;;;0.82;0.82;;;;;;;;;;5032209;28;20053;-68
2022/08/22 11:48:59;;;;;;;1.05;0.80;;;;;;;;;;5032049;28;20084;-67
2022/08/22 11:51:35;;;;;;;1.17;1.10;;;;;;;;;;5031644;28;20100;-68
2022/08/22 11:54:10;;;;;;;0.90;0.90;;;;;;;;;;5031247;28;20053;-68
2022/08/22 11:56:43;;;;;;;1.33;0.90;;;;;;;;;;5031704;28;20056;-67
2022/08/22 11:59:31;;;;;;;1.88;1.00;;;;;;;;;;5028727;28;20084;-68
2022/08/22 12:02:02;;;;;;;1.40;1.27;;;;;;;;;;5031898;28;20408;-68
2022/08/22 12:04:45;;;;;;;0.90;0.85;;;;;;;;;;5031152;28;20448;-68
2022/08/22 12:07:14;;;;;;;0.80;0.80;;;;;;;;;;5031403;28;20073;-67
2022/08/22 12:09:49;;;;;;;1.02;0.85;;;;;;;;;;5030123;28;20080;-67
2022/08/22 12:12:21;;;;;;;1.88;0.93;;;;;;;;;;5031327;28;20060;-67
2022/08/22 12:14:48;;;;;;;3.03;1.35;;;;;;;;;;5030499;28;20049;-68
2022/08/22 12:17:24;;;;;;;1.48;0.95;;;;;;;;;;5031414;28;20076;-67
2022/08/22 12:20:14;;;;;;;1.10;1.00;;;;;;;;;;5031674;28;20132;-68
2022/08/22 12:22:48;;;;;;;1.55;1.23;;;;;;;;;;5031111;28;20124;-67
2022/08/22 12:25:48;;;;;;;2.35;1.15;;;;;;;;;;5031218;28;20088;-68
2022/08/22 12:28:33;;;;;;;1.38;0.80;;;;;;;;;;5030104;28;20037;-67
2022/08/22 12:31:12;;;;;;;1.23;0.88;;;;;;;;;;5031064;28;20045;-68
2022/08/22 12:33:39;;;;;;;1.10;0.85;;;;;;;;;;5031271;28;20049;-67
2022/08/22 12:36:11;;;;;;;0.85;0.75;;;;;;;;;;5030646;28;20069;-68
2022/08/22 12:39:02;;;;;;;1.98;1.00;;;;;;;;;;5029829;28;20136;-68
2022/08/22 12:41:59;;;;;;;1.25;0.57;;;;;;;;;;5028101;28;20092;-67
2022/08/22 12:44:29;;;;;;;0.40;0.40;;;;;;;;;;5030560;28;20497;-67
2022/08/22 12:47:05;;;;;;;0.73;0.60;;;;;;;;;;5030751;28;20079;-67
2022/08/22 12:49:53;;;;;;;1.17;0.40;;;;;;;;;;5030906;28;20049;-67
2022/08/22 12:52:30;;;;;;;0.20;0.20;;;;;;;;;;5030544;28;20080;-69
2022/08/22 12:55:07;;;;;;;0.70;0.30;;;;;;;;;;5029686;28;20123;-68
2022/08/22 12:57:40;;;;;;;0.38;0.38;;;;;;;;;;5030789;28;20095;-68
2022/08/22 13:00:08;;;;;;;0.40;0.40;;;;;;;;;;5028757;28;20053;-68
2022/08/22 13:02:38;;;;;;;0.85;0.38;;;;;;;;;;5032966;28;20422;-68
2022/08/22 13:05:12;;;;;;;0.40;0.30;;;;;;;;;;5035313;28;20053;-68
2022/08/22 13:07:50;;;;;;;0.68;0.30;;;;;;;;;;5035203;28;20048;-69
2022/08/22 13:10:32;;;;;;;0.75;0.30;;;;;;;;;;5034953;28;20054;-67
2022/08/22 13:12:59;;;;;;;0.60;0.32;;;;;;;;;;5034932;28;20049;-69
2022/08/22 13:15:41;;;;;;;0.85;0.30;;;;;;;;;;5032783;28;20053;-67
2022/08/22 13:18:16;;;;;;;0.75;0.38;;;;;;;;;;5033386;28;20061;-67
2022/08/22 13:20:57;;;;;;;0.52;0.30;;;;;;;;;;5034993;28;20053;-67
2022/08/22 13:23:25;;;;;;;0.73;0.30;;;;;;;;;;5034808;28;20103;-68
2022/08/22 13:26:11;;;;;;;0.20;0.20;;;;;;;;;;5034394;28;20069;-67
2022/08/22 13:28:55;;;;;;;0.30;0.30;;;;;;;;;;5032461;28;20050;-68
2022/08/22 13:31:42;;;;;;;0.10;0.10;;;;;;;;;;5033444;28;20057;-67
2022/08/22 13:34:24;;;;;;;0.20;0.20;;;;;;;;;;5034599;28;20354;-67
2022/08/22 13:36:54;;;;;;;0.38;0.38;;;;;;;;;;5034612;28;20085;-67
2022/08/22 13:39:24;;;;;;;0.80;0.50;;;;;;;;;;5033556;28;20128;-66
2022/08/22 13:41:55;;;;;;;1.52;1.25;;;;;;;;;;5032916;28;20104;-66
2022/08/22 13:44:27;;;;;;;1.45;0.80;;;;;;;;;;5034571;28;20049;-67
2022/08/22 13:47:00;;;;;;;1.35;0.85;;;;;;;;;;5034383;28;20412;-67
2022/08/22 13:49:44;;;;;;;2.88;2.20;;;;;;;;;;5034640;28;20077;-67
2022/08/22 13:52:10;;;;;;;4.10;3.50;;;;;;;;;;5034403;28;20452;-67
2022/08/22 13:54:54;;;;;;;2.42;2.15;;;;;;;;;;5034209;28;20053;-67
2022/08/22 13:57:44;;;;;;;1.07;1.03;;;;;;;;;;5033878;28;20076;-66
2022/08/22 14:00:17;;;;;;;1.40;0.95;;;;;;;;;;5032218;28;20057;-67
2022/08/22 14:03:00;;;;;;;1.15;1.02;;;;;;;;;;5034192;28;20045;-69
2022/08/22 14:05:37;;;;;;;0.68;0.68;;;;;;;;;;5033650;28;20164;-68
2022/08/22 14:08:16;;;;;;;1.17;0.70;;;;;;;;;;5033468;28;20126;-67
2022/08/22 14:10:51;;;;;;;0.30;0.30;;;;;;;;;;5032412;28;20053;-68
2022/08/22 14:13:37;;;;;;;0.50;0.50;;;;;;;;;;5032409;28;20045;-67
2022/08/22 14:16:09;;;;;;;0.50;0.50;;;;;;;;;;5020617;28;20049;-67
2022/08/22 14:18:56;;;;;;;0.35;0.35;;;;;;;;;;5033602;28;20092;-67
2022/08/22 14:21:28;;;;;;;0.70;0.70;;;;;;;;;;5033917;28;20080;-67
2022/08/22 14:24:08;;;;;;;1.42;0.75;;;;;;;;;;5033642;28;20056;-67
2022/08/22 14:26:37;;;;;;;0.40;0.40;;;;;;;;;;5033676;28;20099;-67
2022/08/22 14:29:14;;;;;;;1.38;0.52;;;;;;;;;;5033893;28;20045;-67
2022/08/22 14:31:53;;;;;;;1.05;0.50;;;;;;;;;;5033379;28;20440;-68
2022/08/22 14:34:20;;;;;;;0.85;0.50;;;;;;;;;;5033427;28;20505;-68
2022/08/22 14:37:02;;;;;;;1.05;0.47;;;;;;;;;;5033577;28;20053;-68
2022/08/22 14:39:30;;;;;;;0.57;0.57;;;;;;;;;;5033621;28;20137;-70
2022/08/22 14:42:09;;;;;;;0.75;0.50;;;;;;;;;;5033114;28;20056;-68
2022/08/22 14:44:41;;;;;;;1.13;0.60;;;;;;;;;;5033526;28;20049;-68
2022/08/22 14:47:11;;;;;;;0.30;0.30;;;;;;;;;;5033113;28;20053;-70
2022/08/22 14:49:58;;;;;;;0.60;0.52;;;;;;;;;;5032948;28;20085;-69
2022/08/22 14:52:27;;;;;;;0.68;0.50;;;;;;;;;;5033014;28;20057;-68
2022/08/22 14:55:09;;;;;;;0.95;0.40;;;;;;;;;;5033020;28;20053;-67
2022/08/22 14:57:40;;;;;;;0.95;0.47;;;;;;;;;;5033319;28;20046;-68
2022/08/22 15:00:11;;;;;;;1.02;0.40;;;;;;;;;;5031118;28;20093;-68
2022/08/22 15:02:39;;;;;;;1.55;0.57;;;;;;;;;;5033089;28;20122;-68
2022/08/22 15:05:13;;;;;;;0.50;0.50;;;;;;;;;;5033076;28;20100;-67
2022/08/22 15:07:41;;;;;;;0.60;0.40;;;;;;;;;;5033081;28;20053;-69
2022/08/22 15:10:10;;;;;;;0.55;0.50;;;;;;;;;;5032900;28;20106;-68
2022/08/22 15:12:45;;;;;;;1.13;0.63;;;;;;;;;;5032959;28;20134;-67
2022/08/22 15:15:25;;;;;;;0.57;0.52;;;;;;;;;;5032885;28;20042;-67
2022/08/22 15:17:51;;;;;;;1.40;0.57;;;;;;;;;;5032593;28;20062;-67
2022/08/22 15:20:22;;;;;;;1.60;0.50;;;;;;;;;;5032642;28;20053;-68
2022/08/22 15:22:54;;;;;;;0.40;0.40;;;;;;;;;;5032778;28;20045;-68
2022/08/22 15:25:23;;;;;;;0.73;0.50;;;;;;;;;;5031912;28;20433;-69
2022/08/22 15:27:58;;;;;;;1.25;0.50;;;;;;;;;;5032649;28;20080;-69
2022/08/22 15:30:36;;;;;;;0.73;0.40;;;;;;;;;;5031187;28;20045;-68